sensor_id;sensor_type;location;lat;lon;timestamp;temperature;humidity
65046;DHT22;54657;52.022;5.534;2024-03-02T00:02:12;10.00;83.90
65046;DHT22;54657;52.022;5.534;2024-03-02T00:04:37;10.00;84.00
65046;DHT22;54657;52.022;5.534;2024-03-02T00:07:03;10.00;83.60
65046;DHT22;54657;52.022;5.534;2024-03-02T00:09:29;10.10;83.90
65046;DHT22;54657;52.022;5.534;2024-03-02T00:11:55;10.10;84.00
65046;DHT22;54657;52.022;5.534;2024-03-02T00:14:22;10.10;83.80
65046;DHT22;54657;52.022;5.534;2024-03-02T00:16:50;10.10;83.70
65046;DHT22;54657;52.022;5.534;2024-03-02T00:19:16;10.10;84.00
65046;DHT22;54657;52.022;5.534;2024-03-02T00:21:42;10.10;84.10
65046;DHT22;54657;52.022;5.534;2024-03-02T00:24:18;10.10;84.10
65046;DHT22;54657;52.022;5.534;2024-03-02T00:26:45;10.10;83.60
65046;DHT22;54657;52.022;5.534;2024-03-02T00:29:17;10.10;84.10
65046;DHT22;54657;52.022;5.534;2024-03-02T00:31:44;10.10;84.10
65046;DHT22;54657;52.022;5.534;2024-03-02T00:34:13;10.10;84.30
65046;DHT22;54657;52.022;5.534;2024-03-02T00:36:41;10.20;84.30
65046;DHT22;54657;52.022;5.534;2024-03-02T00:39:07;10.10;84.30
65046;DHT22;54657;52.022;5.534;2024-03-02T00:41:33;10.10;84.30
65046;DHT22;54657;52.022;5.534;2024-03-02T00:44:00;10.10;84.70
65046;DHT22;54657;52.022;5.534;2024-03-02T00:46:29;10.20;84.80
65046;DHT22;54657;52.022;5.534;2024-03-02T00:49:00;10.10;84.60
65046;DHT22;54657;52.022;5.534;2024-03-02T00:51:29;10.10;84.80
65046;DHT22;54657;52.022;5.534;2024-03-02T00:53:57;10.10;85.10
65046;DHT22;54657;52.022;5.534;2024-03-02T00:56:26;10.10;85.20
65046;DHT22;54657;52.022;5.534;2024-03-02T00:58:52;10.00;85.40
65046;DHT22;54657;52.022;5.534;2024-03-02T01:01:18;10.00;85.80
65046;DHT22;54657;52.022;5.534;2024-03-02T01:03:45;9.90;86.00
65046;DHT22;54657;52.022;5.534;2024-03-02T01:06:11;9.80;86.40
65046;DHT22;54657;52.022;5.534;2024-03-02T01:08:37;9.80;86.80
65046;DHT22;54657;52.022;5.534;2024-03-02T01:11:03;9.70;87.10
65046;DHT22;54657;52.022;5.534;2024-03-02T01:13:28;9.70;87.20
65046;DHT22;54657;52.022;5.534;2024-03-02T01:15:56;9.60;87.60
65046;DHT22;54657;52.022;5.534;2024-03-02T01:18:21;9.70;87.60
65046;DHT22;54657;52.022;5.534;2024-03-02T01:20:50;9.60;87.80
65046;DHT22;54657;52.022;5.534;2024-03-02T01:23:18;9.60;87.70
65046;DHT22;54657;52.022;5.534;2024-03-02T01:25:45;9.70;87.90
65046;DHT22;54657;52.022;5.534;2024-03-02T01:28:11;9.60;88.10
65046;DHT22;54657;52.022;5.534;2024-03-02T01:30:37;9.60;88.00
65046;DHT22;54657;52.022;5.534;2024-03-02T01:33:02;9.70;88.30
65046;DHT22;54657;52.022;5.534;2024-03-02T01:35:31;9.60;88.60
65046;DHT22;54657;52.022;5.534;2024-03-02T01:37:56;9.50;89.20
65046;DHT22;54657;52.022;5.534;2024-03-02T01:40:22;9.50;89.50
65046;DHT22;54657;52.022;5.534;2024-03-02T01:42:52;9.50;89.60
65046;DHT22;54657;52.022;5.534;2024-03-02T01:45:17;9.50;89.70
65046;DHT22;54657;52.022;5.534;2024-03-02T01:47:43;9.50;89.80
65046;DHT22;54657;52.022;5.534;2024-03-02T01:50:10;9.40;89.90
65046;DHT22;54657;52.022;5.534;2024-03-02T01:52:36;9.40;90.00
65046;DHT22;54657;52.022;5.534;2024-03-02T01:55:02;9.40;90.10
65046;DHT22;54657;52.022;5.534;2024-03-02T01:57:29;9.40;90.10
65046;DHT22;54657;52.022;5.534;2024-03-02T01:59:55;9.40;90.10
65046;DHT22;54657;52.022;5.534;2024-03-02T02:02:20;9.50;90.10
65046;DHT22;54657;52.022;5.534;2024-03-02T02:04:46;9.50;89.90
65046;DHT22;54657;52.022;5.534;2024-03-02T02:07:12;9.40;90.20
65046;DHT22;54657;52.022;5.534;2024-03-02T02:09:41;9.40;90.20
65046;DHT22;54657;52.022;5.534;2024-03-02T02:12:06;9.30;90.30
65046;DHT22;54657;52.022;5.534;2024-03-02T02:14:33;9.40;90.20
65046;DHT22;54657;52.022;5.534;2024-03-02T02:16:59;9.30;90.20
65046;DHT22;54657;52.022;5.534;2024-03-02T02:19:25;9.40;90.30
65046;DHT22;54657;52.022;5.534;2024-03-02T02:21:50;9.30;90.40
65046;DHT22;54657;52.022;5.534;2024-03-02T02:24:16;9.30;90.30
65046;DHT22;54657;52.022;5.534;2024-03-02T02:26:41;9.30;90.40
65046;DHT22;54657;52.022;5.534;2024-03-02T02:29:07;9.30;90.40
65046;DHT22;54657;52.022;5.534;2024-03-02T02:31:39;9.30;90.40
65046;DHT22;54657;52.022;5.534;2024-03-02T02:34:05;9.30;90.50
65046;DHT22;54657;52.022;5.534;2024-03-02T02:36:34;9.20;90.70
65046;DHT22;54657;52.022;5.534;2024-03-02T02:39:04;9.20;90.70
65046;DHT22;54657;52.022;5.534;2024-03-02T02:41:30;9.10;90.70
65046;DHT22;54657;52.022;5.534;2024-03-02T02:43:56;9.10;91.10
65046;DHT22;54657;52.022;5.534;2024-03-02T02:46:21;9.10;90.90
65046;DHT22;54657;52.022;5.534;2024-03-02T02:48:47;9.00;91.30
65046;DHT22;54657;52.022;5.534;2024-03-02T02:51:12;9.00;91.50
65046;DHT22;54657;52.022;5.534;2024-03-02T02:53:38;8.90;91.50
65046;DHT22;54657;52.022;5.534;2024-03-02T02:56:06;8.90;91.50
65046;DHT22;54657;52.022;5.534;2024-03-02T02:58:32;9.00;91.60
65046;DHT22;54657;52.022;5.534;2024-03-02T03:00:57;9.00;91.60
65046;DHT22;54657;52.022;5.534;2024-03-02T03:03:23;8.90;91.50
65046;DHT22;54657;52.022;5.534;2024-03-02T03:05:48;8.90;91.80
65046;DHT22;54657;52.022;5.534;2024-03-02T03:08:14;8.90;91.80
65046;DHT22;54657;52.022;5.534;2024-03-02T03:10:41;8.90;91.90
65046;DHT22;54657;52.022;5.534;2024-03-02T03:13:07;8.90;91.90
65046;DHT22;54657;52.022;5.534;2024-03-02T03:15:35;8.90;92.00
65046;DHT22;54657;52.022;5.534;2024-03-02T03:18:02;8.90;92.20
65046;DHT22;54657;52.022;5.534;2024-03-02T03:20:29;8.80;92.30
65046;DHT22;54657;52.022;5.534;2024-03-02T03:22:55;8.90;92.10
65046;DHT22;54657;52.022;5.534;2024-03-02T03:25:20;8.90;92.20
65046;DHT22;54657;52.022;5.534;2024-03-02T03:27:46;8.90;92.00
65046;DHT22;54657;52.022;5.534;2024-03-02T03:30:12;8.90;91.90
65046;DHT22;54657;52.022;5.534;2024-03-02T03:32:38;8.90;92.10
65046;DHT22;54657;52.022;5.534;2024-03-02T03:35:04;8.90;92.00
65046;DHT22;54657;52.022;5.534;2024-03-02T03:37:30;8.90;91.90
65046;DHT22;54657;52.022;5.534;2024-03-02T03:39:59;8.90;91.90
65046;DHT22;54657;52.022;5.534;2024-03-02T03:42:24;8.90;91.90
65046;DHT22;54657;52.022;5.534;2024-03-02T03:44:50;8.90;91.90
65046;DHT22;54657;52.022;5.534;2024-03-02T03:47:15;8.90;91.90
65046;DHT22;54657;52.022;5.534;2024-03-02T03:49:41;8.80;91.90
65046;DHT22;54657;52.022;5.534;2024-03-02T03:52:06;8.70;92.20
65046;DHT22;54657;52.022;5.534;2024-03-02T03:54:32;8.70;92.10
65046;DHT22;54657;52.022;5.534;2024-03-02T03:56:57;8.70;92.20
65046;DHT22;54657;52.022;5.534;2024-03-02T03:59:23;8.80;92.10
65046;DHT22;54657;52.022;5.534;2024-03-02T04:01:51;8.70;92.10
65046;DHT22;54657;52.022;5.534;2024-03-02T04:04:18;8.70;92.10
65046;DHT22;54657;52.022;5.534;2024-03-02T04:06:43;8.70;92.00
65046;DHT22;54657;52.022;5.534;2024-03-02T04:09:09;8.70;92.00
65046;DHT22;54657;52.022;5.534;2024-03-02T04:11:35;8.70;92.20
65046;DHT22;54657;52.022;5.534;2024-03-02T04:14:00;8.70;92.10
65046;DHT22;54657;52.022;5.534;2024-03-02T04:16:26;8.60;92.10
65046;DHT22;54657;52.022;5.534;2024-03-02T04:18:51;8.70;92.10
65046;DHT22;54657;52.022;5.534;2024-03-02T04:21:17;8.70;92.10
65046;DHT22;54657;52.022;5.534;2024-03-02T04:23:42;8.70;92.00
65046;DHT22;54657;52.022;5.534;2024-03-02T04:26:08;8.70;91.90
65046;DHT22;54657;52.022;5.534;2024-03-02T04:28:34;8.70;91.90
65046;DHT22;54657;52.022;5.534;2024-03-02T04:30:59;8.60;91.80
65046;DHT22;54657;52.022;5.534;2024-03-02T04:33:25;8.70;91.70
65046;DHT22;54657;52.022;5.534;2024-03-02T04:35:50;8.70;91.70
65046;DHT22;54657;52.022;5.534;2024-03-02T04:38:16;8.70;91.70
65046;DHT22;54657;52.022;5.534;2024-03-02T04:40:41;8.70;91.70
65046;DHT22;54657;52.022;5.534;2024-03-02T04:43:07;8.70;91.70
65046;DHT22;54657;52.022;5.534;2024-03-02T04:45:35;8.70;91.70
65046;DHT22;54657;52.022;5.534;2024-03-02T04:48:01;8.80;91.50
65046;DHT22;54657;52.022;5.534;2024-03-02T04:50:26;8.80;91.40
65046;DHT22;54657;52.022;5.534;2024-03-02T04:52:52;8.80;91.40
65046;DHT22;54657;52.022;5.534;2024-03-02T04:55:17;8.80;91.30
65046;DHT22;54657;52.022;5.534;2024-03-02T04:58:01;8.70;91.20
65046;DHT22;54657;52.022;5.534;2024-03-02T05:00:27;8.80;91.30
65046;DHT22;54657;52.022;5.534;2024-03-02T05:02:52;8.80;91.20
65046;DHT22;54657;52.022;5.534;2024-03-02T05:05:18;8.80;91.20
65046;DHT22;54657;52.022;5.534;2024-03-02T05:07:43;8.80;91.10
65046;DHT22;54657;52.022;5.534;2024-03-02T05:10:09;8.80;91.10
65046;DHT22;54657;52.022;5.534;2024-03-02T05:12:35;8.70;91.10
65046;DHT22;54657;52.022;5.534;2024-03-02T05:15:13;8.80;91.10
65046;DHT22;54657;52.022;5.534;2024-03-02T05:17:40;8.80;91.10
65046;DHT22;54657;52.022;5.534;2024-03-02T05:20:07;8.70;91.10
65046;DHT22;54657;52.022;5.534;2024-03-02T05:22:33;8.80;91.10
65046;DHT22;54657;52.022;5.534;2024-03-02T05:25:00;8.80;91.00
65046;DHT22;54657;52.022;5.534;2024-03-02T05:27:29;8.80;91.00
65046;DHT22;54657;52.022;5.534;2024-03-02T05:29:55;8.80;90.90
65046;DHT22;54657;52.022;5.534;2024-03-02T05:32:21;8.90;90.90
65046;DHT22;54657;52.022;5.534;2024-03-02T05:34:46;8.90;90.90
65046;DHT22;54657;52.022;5.534;2024-03-02T05:37:12;9.00;90.90
65046;DHT22;54657;52.022;5.534;2024-03-02T05:39:37;9.00;90.90
65046;DHT22;54657;52.022;5.534;2024-03-02T05:42:03;9.10;90.80
65046;DHT22;54657;52.022;5.534;2024-03-02T05:44:29;9.10;90.80
65046;DHT22;54657;52.022;5.534;2024-03-02T05:46:55;9.20;90.80
65046;DHT22;54657;52.022;5.534;2024-03-02T05:49:21;9.10;90.80
65046;DHT22;54657;52.022;5.534;2024-03-02T05:51:46;9.20;90.80
65046;DHT22;54657;52.022;5.534;2024-03-02T05:54:12;9.10;90.70
65046;DHT22;54657;52.022;5.534;2024-03-02T05:56:37;9.10;90.70
65046;DHT22;54657;52.022;5.534;2024-03-02T05:59:03;9.00;90.70
65046;DHT22;54657;52.022;5.534;2024-03-02T06:01:47;9.00;90.60
65046;DHT22;54657;52.022;5.534;2024-03-02T06:04:14;8.90;90.70
65046;DHT22;54657;52.022;5.534;2024-03-02T06:06:40;8.90;90.80
65046;DHT22;54657;52.022;5.534;2024-03-02T06:09:06;8.90;90.70
65046;DHT22;54657;52.022;5.534;2024-03-02T06:11:39;8.80;90.70
65046;DHT22;54657;52.022;5.534;2024-03-02T06:14:06;8.80;90.80
65046;DHT22;54657;52.022;5.534;2024-03-02T06:16:33;8.80;90.80
65046;DHT22;54657;52.022;5.534;2024-03-02T06:18:58;8.80;90.70
65046;DHT22;54657;52.022;5.534;2024-03-02T06:21:24;8.90;90.70
65046;DHT22;54657;52.022;5.534;2024-03-02T06:23:50;8.90;90.70
65046;DHT22;54657;52.022;5.534;2024-03-02T06:26:16;8.90;90.60
65046;DHT22;54657;52.022;5.534;2024-03-02T06:28:41;8.80;90.70
65046;DHT22;54657;52.022;5.534;2024-03-02T06:31:08;8.80;91.00
65046;DHT22;54657;52.022;5.534;2024-03-02T06:33:33;8.80;90.70
65046;DHT22;54657;52.022;5.534;2024-03-02T06:35:59;8.80;90.80
65046;DHT22;54657;52.022;5.534;2024-03-02T06:38:25;8.70;90.80
65046;DHT22;54657;52.022;5.534;2024-03-02T06:40:51;8.70;90.90
65046;DHT22;54657;52.022;5.534;2024-03-02T06:43:16;8.60;90.90
65046;DHT22;54657;52.022;5.534;2024-03-02T06:45:42;8.60;91.00
65046;DHT22;54657;52.022;5.534;2024-03-02T06:48:07;8.60;91.10
65046;DHT22;54657;52.022;5.534;2024-03-02T06:50:33;8.50;91.00
65046;DHT22;54657;52.022;5.534;2024-03-02T06:52:59;8.60;91.00
65046;DHT22;54657;52.022;5.534;2024-03-02T06:55:24;8.50;90.80
65046;DHT22;54657;52.022;5.534;2024-03-02T06:57:51;8.50;90.90
65046;DHT22;54657;52.022;5.534;2024-03-02T07:00:17;8.50;90.80
65046;DHT22;54657;52.022;5.534;2024-03-02T07:02:43;8.50;90.70
65046;DHT22;54657;52.022;5.534;2024-03-02T07:05:10;8.50;90.80
65046;DHT22;54657;52.022;5.534;2024-03-02T07:07:35;8.50;90.80
65046;DHT22;54657;52.022;5.534;2024-03-02T07:10:03;8.50;90.70
65046;DHT22;54657;52.022;5.534;2024-03-02T07:12:28;8.60;90.80
65046;DHT22;54657;52.022;5.534;2024-03-02T07:14:54;8.60;90.70
65046;DHT22;54657;52.022;5.534;2024-03-02T07:17:29;8.60;90.70
65046;DHT22;54657;52.022;5.534;2024-03-02T07:19:56;8.60;90.70
65046;DHT22;54657;52.022;5.534;2024-03-02T07:22:22;8.60;90.70
65046;DHT22;54657;52.022;5.534;2024-03-02T07:24:48;8.70;90.80
65046;DHT22;54657;52.022;5.534;2024-03-02T07:27:15;8.70;90.70
65046;DHT22;54657;52.022;5.534;2024-03-02T07:29:41;8.80;90.70
65046;DHT22;54657;52.022;5.534;2024-03-02T07:32:08;8.80;90.70
65046;DHT22;54657;52.022;5.534;2024-03-02T07:34:33;8.90;90.60
65046;DHT22;54657;52.022;5.534;2024-03-02T07:36:59;8.90;90.50
65046;DHT22;54657;52.022;5.534;2024-03-02T07:39:25;9.00;90.50
65046;DHT22;54657;52.022;5.534;2024-03-02T07:41:51;9.00;90.50
65046;DHT22;54657;52.022;5.534;2024-03-02T07:44:16;9.10;90.50
65046;DHT22;54657;52.022;5.534;2024-03-02T07:46:44;9.10;90.40
65046;DHT22;54657;52.022;5.534;2024-03-02T07:49:12;9.20;90.40
65046;DHT22;54657;52.022;5.534;2024-03-02T07:51:39;9.20;90.40
65046;DHT22;54657;52.022;5.534;2024-03-02T07:54:05;9.20;90.30
65046;DHT22;54657;52.022;5.534;2024-03-02T07:56:30;9.20;90.40
65046;DHT22;54657;52.022;5.534;2024-03-02T07:58:56;9.30;90.60
65046;DHT22;54657;52.022;5.534;2024-03-02T08:01:29;9.40;90.30
65046;DHT22;54657;52.022;5.534;2024-03-02T08:03:59;9.40;90.30
65046;DHT22;54657;52.022;5.534;2024-03-02T08:06:26;9.40;90.20
65046;DHT22;54657;52.022;5.534;2024-03-02T08:08:58;9.40;90.20
65046;DHT22;54657;52.022;5.534;2024-03-02T08:11:24;9.30;90.10
65046;DHT22;54657;52.022;5.534;2024-03-02T08:13:49;9.40;90.10
65046;DHT22;54657;52.022;5.534;2024-03-02T08:16:18;9.30;90.20
65046;DHT22;54657;52.022;5.534;2024-03-02T08:18:49;9.20;90.10
65046;DHT22;54657;52.022;5.534;2024-03-02T08:21:14;9.10;90.10
65046;DHT22;54657;52.022;5.534;2024-03-02T08:23:40;9.10;90.30
65046;DHT22;54657;52.022;5.534;2024-03-02T08:26:11;9.20;90.30
65046;DHT22;54657;52.022;5.534;2024-03-02T08:28:36;9.20;90.30
65046;DHT22;54657;52.022;5.534;2024-03-02T08:31:08;9.20;90.20
65046;DHT22;54657;52.022;5.534;2024-03-02T08:33:34;9.20;90.20
65046;DHT22;54657;52.022;5.534;2024-03-02T08:36:00;9.20;90.30
65046;DHT22;54657;52.022;5.534;2024-03-02T08:38:26;9.30;90.30
65046;DHT22;54657;52.022;5.534;2024-03-02T08:40:52;9.30;90.10
65046;DHT22;54657;52.022;5.534;2024-03-02T08:43:17;9.30;90.10
65046;DHT22;54657;52.022;5.534;2024-03-02T08:45:43;9.30;90.10
65046;DHT22;54657;52.022;5.534;2024-03-02T08:48:09;9.30;89.90
65046;DHT22;54657;52.022;5.534;2024-03-02T08:50:35;9.40;90.00
65046;DHT22;54657;52.022;5.534;2024-03-02T08:53:02;9.50;89.90
65046;DHT22;54657;52.022;5.534;2024-03-02T08:55:27;9.60;89.70
65046;DHT22;54657;52.022;5.534;2024-03-02T08:57:53;9.70;89.40
65046;DHT22;54657;52.022;5.534;2024-03-02T09:00:19;9.70;89.20
65046;DHT22;54657;52.022;5.534;2024-03-02T09:02:45;9.70;89.00
65046;DHT22;54657;52.022;5.534;2024-03-02T09:05:10;9.80;89.60
65046;DHT22;54657;52.022;5.534;2024-03-02T09:07:36;9.90;88.40
65046;DHT22;54657;52.022;5.534;2024-03-02T09:10:04;9.90;88.20
65046;DHT22;54657;52.022;5.534;2024-03-02T09:12:30;10.00;88.60
65046;DHT22;54657;52.022;5.534;2024-03-02T09:14:56;10.10;88.60
65046;DHT22;54657;52.022;5.534;2024-03-02T09:17:21;10.20;88.00
65046;DHT22;54657;52.022;5.534;2024-03-02T09:19:47;10.10;87.70
65046;DHT22;54657;52.022;5.534;2024-03-02T09:22:12;10.30;87.70
65046;DHT22;54657;52.022;5.534;2024-03-02T09:24:38;10.30;87.80
65046;DHT22;54657;52.022;5.534;2024-03-02T09:27:04;10.40;86.70
65046;DHT22;54657;52.022;5.534;2024-03-02T09:29:30;10.40;87.30
65046;DHT22;54657;52.022;5.534;2024-03-02T09:31:56;10.50;87.30
65046;DHT22;54657;52.022;5.534;2024-03-02T09:34:21;10.50;86.10
65046;DHT22;54657;52.022;5.534;2024-03-02T09:36:47;10.50;86.10
65046;DHT22;54657;52.022;5.534;2024-03-02T09:39:13;10.50;85.90
65046;DHT22;54657;52.022;5.534;2024-03-02T09:41:39;10.50;85.70
65046;DHT22;54657;52.022;5.534;2024-03-02T09:44:05;10.60;86.00
65046;DHT22;54657;52.022;5.534;2024-03-02T09:46:31;10.70;86.00
65046;DHT22;54657;52.022;5.534;2024-03-02T09:48:58;10.80;85.30
65046;DHT22;54657;52.022;5.534;2024-03-02T09:51:24;10.70;84.70
65046;DHT22;54657;52.022;5.534;2024-03-02T09:53:50;10.80;84.50
65046;DHT22;54657;52.022;5.534;2024-03-02T09:56:16;10.80;85.00
65046;DHT22;54657;52.022;5.534;2024-03-02T09:58:41;10.90;83.90
65046;DHT22;54657;52.022;5.534;2024-03-02T10:01:08;10.90;84.10
65046;DHT22;54657;52.022;5.534;2024-03-02T10:03:36;11.00;84.20
65046;DHT22;54657;52.022;5.534;2024-03-02T10:06:25;11.10;84.80
65046;DHT22;54657;52.022;5.534;2024-03-02T10:08:51;11.20;81.10
65046;DHT22;54657;52.022;5.534;2024-03-02T10:11:33;11.20;83.10
65046;DHT22;54657;52.022;5.534;2024-03-02T10:14:10;11.20;81.20
65046;DHT22;54657;52.022;5.534;2024-03-02T10:16:41;11.20;79.90
65046;DHT22;54657;52.022;5.534;2024-03-02T10:19:21;11.20;82.60
65046;DHT22;54657;52.022;5.534;2024-03-02T10:21:48;11.30;81.40
65046;DHT22;54657;52.022;5.534;2024-03-02T10:24:18;11.40;83.50
65046;DHT22;54657;52.022;5.534;2024-03-02T10:26:47;11.50;83.40
65046;DHT22;54657;52.022;5.534;2024-03-02T10:29:13;11.70;83.00
65046;DHT22;54657;52.022;5.534;2024-03-02T10:31:40;11.70;82.90
65046;DHT22;54657;52.022;5.534;2024-03-02T10:34:07;11.70;81.80
65046;DHT22;54657;52.022;5.534;2024-03-02T10:36:34;11.80;82.20
65046;DHT22;54657;52.022;5.534;2024-03-02T10:39:04;11.70;81.90
65046;DHT22;54657;52.022;5.534;2024-03-02T10:41:38;11.80;81.70
65046;DHT22;54657;52.022;5.534;2024-03-02T10:44:05;11.90;81.90
65046;DHT22;54657;52.022;5.534;2024-03-02T10:46:32;11.90;81.50
65046;DHT22;54657;52.022;5.534;2024-03-02T10:49:00;12.00;81.00
65046;DHT22;54657;52.022;5.534;2024-03-02T10:51:27;12.10;82.00
65046;DHT22;54657;52.022;5.534;2024-03-02T10:53:54;12.10;81.80
65046;DHT22;54657;52.022;5.534;2024-03-02T10:56:31;12.10;81.70
65046;DHT22;54657;52.022;5.534;2024-03-02T10:59:03;12.20;80.40
65046;DHT22;54657;52.022;5.534;2024-03-02T11:01:32;12.20;79.60
65046;DHT22;54657;52.022;5.534;2024-03-02T11:03:59;12.20;79.80
65046;DHT22;54657;52.022;5.534;2024-03-02T11:06:28;12.20;79.90
65046;DHT22;54657;52.022;5.534;2024-03-02T11:08:55;12.30;80.00
65046;DHT22;54657;52.022;5.534;2024-03-02T11:11:29;12.30;79.60
65046;DHT22;54657;52.022;5.534;2024-03-02T11:13:57;12.40;79.60
65046;DHT22;54657;52.022;5.534;2024-03-02T11:16:27;12.40;79.60
65046;DHT22;54657;52.022;5.534;2024-03-02T11:19:01;12.50;80.40
65046;DHT22;54657;52.022;5.534;2024-03-02T11:21:27;12.50;80.00
65046;DHT22;54657;52.022;5.534;2024-03-02T11:23:53;12.50;79.30
65046;DHT22;54657;52.022;5.534;2024-03-02T11:28:44;12.50;79.90
65046;DHT22;54657;52.022;5.534;2024-03-02T11:31:10;12.60;79.30
65046;DHT22;54657;52.022;5.534;2024-03-02T11:33:36;12.60;77.80
65046;DHT22;54657;52.022;5.534;2024-03-02T11:36:01;12.60;78.40
65046;DHT22;54657;52.022;5.534;2024-03-02T11:38:31;12.70;78.80
65046;DHT22;54657;52.022;5.534;2024-03-02T11:41:00;12.70;77.80
65046;DHT22;54657;52.022;5.534;2024-03-02T11:43:28;12.80;79.00
65046;DHT22;54657;52.022;5.534;2024-03-02T11:45:58;12.80;78.90
65046;DHT22;54657;52.022;5.534;2024-03-02T11:48:25;12.80;77.90
65046;DHT22;54657;52.022;5.534;2024-03-02T11:50:51;12.70;79.00
65046;DHT22;54657;52.022;5.534;2024-03-02T11:53:17;12.70;78.90
65046;DHT22;54657;52.022;5.534;2024-03-02T11:55:44;12.80;78.50
65046;DHT22;54657;52.022;5.534;2024-03-02T11:58:17;12.80;78.30
65046;DHT22;54657;52.022;5.534;2024-03-02T12:00:46;12.80;78.00
65046;DHT22;54657;52.022;5.534;2024-03-02T12:03:15;12.80;78.70
65046;DHT22;54657;52.022;5.534;2024-03-02T12:05:40;12.80;76.80
65046;DHT22;54657;52.022;5.534;2024-03-02T12:08:07;12.80;77.60
65046;DHT22;54657;52.022;5.534;2024-03-02T12:10:35;12.80;77.70
65046;DHT22;54657;52.022;5.534;2024-03-02T12:13:06;12.80;77.90
65046;DHT22;54657;52.022;5.534;2024-03-02T12:15:34;12.80;76.80
65046;DHT22;54657;52.022;5.534;2024-03-02T12:18:00;12.80;76.70
65046;DHT22;54657;52.022;5.534;2024-03-02T12:20:28;12.90;76.60
65046;DHT22;54657;52.022;5.534;2024-03-02T12:22:57;12.90;76.70
65046;DHT22;54657;52.022;5.534;2024-03-02T12:25:24;12.90;76.50
65046;DHT22;54657;52.022;5.534;2024-03-02T12:27:56;13.00;76.50
65046;DHT22;54657;52.022;5.534;2024-03-02T12:30:22;13.00;76.80
65046;DHT22;54657;52.022;5.534;2024-03-02T12:32:49;12.90;75.70
65046;DHT22;54657;52.022;5.534;2024-03-02T12:35:15;13.00;76.70
65046;DHT22;54657;52.022;5.534;2024-03-02T12:37:48;13.00;76.90
65046;DHT22;54657;52.022;5.534;2024-03-02T12:40:17;13.00;75.50
65046;DHT22;54657;52.022;5.534;2024-03-02T12:42:44;12.90;76.10
65046;DHT22;54657;52.022;5.534;2024-03-02T12:45:10;12.90;76.10
65046;DHT22;54657;52.022;5.534;2024-03-02T12:47:36;12.90;76.20
65046;DHT22;54657;52.022;5.534;2024-03-02T12:50:03;13.00;76.00
65046;DHT22;54657;52.022;5.534;2024-03-02T12:52:29;13.00;76.00
65046;DHT22;54657;52.022;5.534;2024-03-02T12:54:55;13.10;76.20
65046;DHT22;54657;52.022;5.534;2024-03-02T12:57:27;13.10;75.40
65046;DHT22;54657;52.022;5.534;2024-03-02T12:59:58;13.10;76.10
65046;DHT22;54657;52.022;5.534;2024-03-02T13:02:27;13.10;75.40
65046;DHT22;54657;52.022;5.534;2024-03-02T13:04:53;13.10;76.30
65046;DHT22;54657;52.022;5.534;2024-03-02T13:07:20;13.20;76.00
65046;DHT22;54657;52.022;5.534;2024-03-02T13:09:48;13.20;76.10
65046;DHT22;54657;52.022;5.534;2024-03-02T13:12:16;13.20;75.70
65046;DHT22;54657;52.022;5.534;2024-03-02T13:14:42;13.20;75.60
65046;DHT22;54657;52.022;5.534;2024-03-02T13:17:10;13.10;74.90
65046;DHT22;54657;52.022;5.534;2024-03-02T13:19:50;13.10;75.40
65046;DHT22;54657;52.022;5.534;2024-03-02T13:22:16;13.20;75.20
65046;DHT22;54657;52.022;5.534;2024-03-02T13:24:41;13.20;75.80
65046;DHT22;54657;52.022;5.534;2024-03-02T13:27:08;13.20;75.10
65046;DHT22;54657;52.022;5.534;2024-03-02T13:29:33;13.20;75.20
65046;DHT22;54657;52.022;5.534;2024-03-02T13:31:59;13.30;74.90
65046;DHT22;54657;52.022;5.534;2024-03-02T13:34:24;13.30;74.90
65046;DHT22;54657;52.022;5.534;2024-03-02T13:36:50;13.40;75.60
65046;DHT22;54657;52.022;5.534;2024-03-02T13:39:16;13.40;74.90
65046;DHT22;54657;52.022;5.534;2024-03-02T13:41:41;13.40;74.30
65046;DHT22;54657;52.022;5.534;2024-03-02T13:44:07;13.40;74.00
65046;DHT22;54657;52.022;5.534;2024-03-02T13:46:33;13.40;74.60
65046;DHT22;54657;52.022;5.534;2024-03-02T13:48:58;13.40;74.70
65046;DHT22;54657;52.022;5.534;2024-03-02T13:51:24;13.40;74.50
65046;DHT22;54657;52.022;5.534;2024-03-02T13:53:50;13.50;74.30
65046;DHT22;54657;52.022;5.534;2024-03-02T13:56:16;13.50;74.60
65046;DHT22;54657;52.022;5.534;2024-03-02T13:58:42;13.50;74.50
65046;DHT22;54657;52.022;5.534;2024-03-02T14:01:09;13.50;74.70
65046;DHT22;54657;52.022;5.534;2024-03-02T14:03:35;13.60;74.60
65046;DHT22;54657;52.022;5.534;2024-03-02T14:06:00;13.60;74.20
65046;DHT22;54657;52.022;5.534;2024-03-02T14:08:26;13.60;73.60
65046;DHT22;54657;52.022;5.534;2024-03-02T14:10:52;13.60;74.30
65046;DHT22;54657;52.022;5.534;2024-03-02T14:13:17;13.60;73.80
65046;DHT22;54657;52.022;5.534;2024-03-02T14:15:43;13.60;73.30
65046;DHT22;54657;52.022;5.534;2024-03-02T14:18:09;13.70;74.10
65046;DHT22;54657;52.022;5.534;2024-03-02T14:20:35;13.80;73.30
65046;DHT22;54657;52.022;5.534;2024-03-02T14:23:01;13.70;73.80
65046;DHT22;54657;52.022;5.534;2024-03-02T14:25:28;13.80;74.10
65046;DHT22;54657;52.022;5.534;2024-03-02T14:27:57;13.80;72.80
65046;DHT22;54657;52.022;5.534;2024-03-02T14:30:23;13.90;72.40
65046;DHT22;54657;52.022;5.534;2024-03-02T14:32:48;13.90;72.40
65046;DHT22;54657;52.022;5.534;2024-03-02T14:35:14;13.90;72.90
65046;DHT22;54657;52.022;5.534;2024-03-02T14:37:40;13.90;72.90
65046;DHT22;54657;52.022;5.534;2024-03-02T14:40:06;14.00;72.80
65046;DHT22;54657;52.022;5.534;2024-03-02T14:42:34;14.00;72.50
65046;DHT22;54657;52.022;5.534;2024-03-02T14:44:59;14.00;72.60
65046;DHT22;54657;52.022;5.534;2024-03-02T14:47:29;14.00;72.00
65046;DHT22;54657;52.022;5.534;2024-03-02T14:49:55;14.00;72.10
65046;DHT22;54657;52.022;5.534;2024-03-02T14:52:20;14.00;71.90
65046;DHT22;54657;52.022;5.534;2024-03-02T14:54:46;14.00;71.70
65046;DHT22;54657;52.022;5.534;2024-03-02T14:57:12;14.10;72.10
65046;DHT22;54657;52.022;5.534;2024-03-02T14:59:37;14.00;71.40
65046;DHT22;54657;52.022;5.534;2024-03-02T15:02:03;14.10;71.70
65046;DHT22;54657;52.022;5.534;2024-03-02T15:04:29;14.00;72.10
65046;DHT22;54657;52.022;5.534;2024-03-02T15:06:55;14.00;72.20
65046;DHT22;54657;52.022;5.534;2024-03-02T15:09:20;14.00;71.90
65046;DHT22;54657;52.022;5.534;2024-03-02T15:11:46;14.00;72.30
65046;DHT22;54657;52.022;5.534;2024-03-02T15:14:11;14.00;72.10
65046;DHT22;54657;52.022;5.534;2024-03-02T15:16:37;14.10;72.10
65046;DHT22;54657;52.022;5.534;2024-03-02T15:19:03;14.00;71.20
65046;DHT22;54657;52.022;5.534;2024-03-02T15:21:28;14.00;71.60
65046;DHT22;54657;52.022;5.534;2024-03-02T15:23:54;14.00;71.50
65046;DHT22;54657;52.022;5.534;2024-03-02T15:26:19;13.90;71.50
65046;DHT22;54657;52.022;5.534;2024-03-02T15:28:45;14.00;72.20
65046;DHT22;54657;52.022;5.534;2024-03-02T15:31:11;14.00;71.50
65046;DHT22;54657;52.022;5.534;2024-03-02T15:33:36;14.00;71.90
65046;DHT22;54657;52.022;5.534;2024-03-02T15:36:02;14.00;71.50
65046;DHT22;54657;52.022;5.534;2024-03-02T15:38:28;14.00;72.10
65046;DHT22;54657;52.022;5.534;2024-03-02T15:40:54;14.00;72.10